createdAt,value
2023-03-18T00:00:47.760Z,45.6429
2023-03-18T00:01:47.793Z,45.7143
2023-03-18T00:02:47.949Z,45.5714
2023-03-18T00:03:47.900Z,46
2023-03-18T00:04:47.920Z,45.9286
2023-03-18T00:05:47.954Z,46.2857
2023-03-18T00:06:47.979Z,46.2857
2023-03-18T00:07:48.016Z,45.7143
2023-03-18T00:08:48.065Z,45.5714
2023-03-18T00:09:48.095Z,45.7143
2023-03-18T00:10:48.127Z,46.1429
2023-03-18T00:11:48.172Z,46.3571
2023-03-18T00:12:48.209Z,45.8571
2023-03-18T00:13:48.257Z,45.4286
2023-03-18T00:14:48.291Z,46.3571
2023-03-18T00:15:48.376Z,46.5
2023-03-18T00:16:48.372Z,46.5714
2023-03-18T00:17:48.413Z,46.1429
2023-03-18T00:18:48.454Z,46.4286
2023-03-18T00:19:48.493Z,46.7143
2023-03-18T00:20:48.525Z,46.5
2023-03-18T00:21:48.572Z,46.1429
2023-03-18T00:22:48.600Z,46.1429
2023-03-18T00:23:48.643Z,46.6429
2023-03-18T00:24:48.683Z,46.6429
2023-03-18T00:25:48.711Z,46.7143
2023-03-18T00:26:48.744Z,46.5
2023-03-18T00:27:48.796Z,46.3571
2023-03-18T00:28:48.822Z,46.6429
2023-03-18T00:29:48.861Z,46.5714
2023-03-18T00:30:48.900Z,46.4286
2023-03-18T00:31:48.941Z,46.5
2023-03-18T00:32:49.009Z,46.7857
2023-03-18T00:33:49.019Z,47.1429
2023-03-18T00:34:49.053Z,47.4286
2023-03-18T00:35:49.107Z,47.2143
2023-03-18T00:36:49.131Z,47.3571
2023-03-18T00:37:49.168Z,47.5
2023-03-18T00:38:49.177Z,47.4286
2023-03-18T00:39:49.215Z,47.2143
2023-03-18T00:40:49.247Z,47.1429
2023-03-18T00:41:49.276Z,47.5
2023-03-18T00:42:49.351Z,47.2857
2023-03-18T00:43:49.415Z,47.1429
2023-03-18T00:44:49.389Z,47
2023-03-18T00:45:49.423Z,47.0714
2023-03-18T00:46:49.481Z,47.4286
2023-03-18T00:47:49.524Z,47.5714
2023-03-18T00:48:49.534Z,47.3571
2023-03-18T00:49:49.575Z,47.5
2023-03-18T00:50:49.607Z,47.2143
2023-03-18T00:51:49.675Z,47
2023-03-18T00:52:49.669Z,46.5714
2023-03-18T00:53:49.726Z,47.0714
2023-03-18T00:54:49.756Z,46.8571
2023-03-18T00:55:49.842Z,46.5
2023-03-18T00:56:49.849Z,47
2023-03-18T00:57:49.867Z,47.1429
2023-03-18T00:58:49.901Z,47.2857
2023-03-18T00:59:49.953Z,47.3571
2023-03-18T01:00:50.011Z,47.5
2023-03-18T01:01:50.060Z,47.5
2023-03-18T01:02:50.057Z,47.5714
2023-03-18T01:03:50.163Z,47.5714
2023-03-18T01:04:50.131Z,47.8571
2023-03-18T01:05:50.172Z,47.6429
2023-03-18T01:06:50.224Z,47.2143
2023-03-18T01:07:50.249Z,47.4286
2023-03-18T01:08:50.289Z,47.4286
2023-03-18T01:09:50.320Z,47.2857
2023-03-18T01:10:50.363Z,47.4286
2023-03-18T01:11:50.400Z,46.9286
2023-03-18T01:12:50.442Z,46.9286
2023-03-18T01:13:50.475Z,47.2143
2023-03-18T01:14:50.506Z,47.0714
2023-03-18T01:15:50.560Z,47.3571
2023-03-18T01:16:50.595Z,47.3571
2023-03-18T01:17:50.651Z,47.0714
2023-03-18T01:18:50.658Z,47.1429
2023-03-18T01:19:50.695Z,47.3571
2023-03-18T01:20:50.731Z,47.5
2023-03-18T01:21:50.761Z,46.8571
2023-03-18T01:22:50.793Z,47.5714
2023-03-18T01:23:50.859Z,47.5714
2023-03-18T01:24:50.867Z,47.5
2023-03-18T01:25:50.905Z,47.2857
2023-03-18T01:26:50.942Z,47.4286
2023-03-18T01:27:50.974Z,46.8571
2023-03-18T01:28:51.018Z,47.2143
2023-03-18T01:29:51.053Z,47.4286
2023-03-18T01:30:51.096Z,47.5714
2023-03-18T01:31:51.263Z,47.5
2023-03-18T01:32:51.174Z,47.2857
2023-03-18T01:33:51.191Z,47.3571
2023-03-18T01:34:51.227Z,47.4286
2023-03-18T01:35:51.294Z,47.2143
2023-03-18T01:36:51.302Z,47.2143
2023-03-18T01:37:51.323Z,47.3571
2023-03-18T01:38:51.363Z,47.2857
2023-03-18T01:39:51.408Z,47.1429
2023-03-18T01:40:51.432Z,47.2143
2023-03-18T01:41:51.469Z,47.2857
2023-03-18T01:42:51.494Z,47.7857
2023-03-18T01:43:51.534Z,48
2023-03-18T01:44:51.574Z,48.1429
2023-03-18T01:45:51.649Z,48.2857
2023-03-18T01:46:51.636Z,48.1429
2023-03-18T01:47:51.689Z,48
2023-03-18T01:48:51.725Z,48.3571
2023-03-18T01:49:51.764Z,48.1429
2023-03-18T01:50:51.787Z,47.9286
2023-03-18T01:51:51.833Z,47.5714
2023-03-18T01:52:51.860Z,47.6429
2023-03-18T01:53:51.900Z,47.4286
2023-03-18T01:54:51.945Z,47.5
2023-03-18T01:55:51.982Z,48
2023-03-18T01:56:52.024Z,48.4286
2023-03-18T01:57:52.059Z,48.3571
2023-03-18T01:58:52.100Z,48.1429
2023-03-18T01:59:52.149Z,48.0714
2023-03-18T02:00:52.207Z,48.5
2023-03-18T02:01:52.220Z,48.8571
2023-03-18T02:02:52.262Z,48.5
2023-03-18T02:03:52.305Z,48.0714
2023-03-18T02:04:52.354Z,48.3571
2023-03-18T02:05:52.373Z,48
2023-03-18T02:06:52.429Z,48.3571
2023-03-18T02:07:52.453Z,48.5
2023-03-18T02:08:52.495Z,48.5714
2023-03-18T02:09:52.543Z,48.3571
2023-03-18T02:10:52.558Z,48.2857
2023-03-18T02:11:52.600Z,48.5714
2023-03-18T02:12:52.634Z,48.5
2023-03-18T02:13:52.685Z,48.3571
2023-03-18T02:14:52.718Z,48.3571
2023-03-18T02:15:52.750Z,48.2143
2023-03-18T02:16:52.881Z,48
2023-03-18T02:17:52.830Z,48.2857
2023-03-18T02:18:52.863Z,48.0714
2023-03-18T02:19:52.899Z,48.3571
2023-03-18T02:20:52.937Z,48.2143
2023-03-18T02:21:52.972Z,48.2143
2023-03-18T02:22:53.014Z,48.4286
2023-03-18T02:23:53.041Z,48.0714
2023-03-18T02:24:53.072Z,48
2023-03-18T02:25:53.116Z,48.0714
2023-03-18T02:26:53.156Z,48.0714
2023-03-18T02:27:53.182Z,47.8571
2023-03-18T02:28:53.220Z,47.9286
2023-03-18T02:29:53.259Z,47.2143
2023-03-18T02:30:53.332Z,46.8571
2023-03-18T02:31:53.334Z,46.7857
2023-03-18T02:32:53.412Z,47.0714
2023-03-18T02:33:53.418Z,46.2143
2023-03-18T02:34:53.449Z,46.5
2023-03-18T02:35:53.573Z,46.8571
2023-03-18T02:36:53.521Z,46.6429
2023-03-18T02:37:53.568Z,46.8571
2023-03-18T02:38:53.597Z,47
2023-03-18T02:39:53.623Z,46.7857
2023-03-18T02:40:53.657Z,46.7143
2023-03-18T02:41:53.701Z,47.3571
2023-03-18T02:42:53.728Z,47.2857
2023-03-18T02:43:53.778Z,47
2023-03-18T02:44:53.817Z,46.5
2023-03-18T02:45:53.910Z,46.5
2023-03-18T02:46:53.890Z,46.4286
2023-03-18T02:47:53.924Z,46.5714
2023-03-18T02:48:53.964Z,46.3571
2023-03-18T02:49:53.993Z,45.9286
2023-03-18T02:50:54.035Z,46.1429
2023-03-18T02:51:54.075Z,46.0714
2023-03-18T02:52:54.114Z,46.1429
2023-03-18T02:53:54.151Z,46.2143
2023-03-18T02:54:54.182Z,46.2857
2023-03-18T02:55:54.217Z,46
2023-03-18T02:56:54.263Z,46.3571
2023-03-18T02:57:54.294Z,46.2857
2023-03-18T02:58:54.323Z,46.1429
2023-03-18T02:59:54.358Z,46.2143
2023-03-18T03:00:54.396Z,46.1429
2023-03-18T03:01:54.440Z,46
2023-03-18T03:02:54.528Z,46
2023-03-18T03:03:54.503Z,46.0714
2023-03-18T03:04:54.540Z,46.0714
2023-03-18T03:05:54.584Z,46
2023-03-18T03:06:54.622Z,46.0714
2023-03-18T03:07:54.670Z,46
2023-03-18T03:08:54.711Z,46.2857
2023-03-18T03:09:54.727Z,46.9286
2023-03-18T03:10:54.774Z,46.8571
2023-03-18T03:11:54.824Z,46.7857
2023-03-18T03:12:54.856Z,46.8571
2023-03-18T03:13:54.902Z,46.9286
2023-03-18T03:14:54.928Z,47
2023-03-18T03:15:55.025Z,46.5714
2023-03-18T03:16:55.007Z,46.9286
2023-03-18T03:17:55.040Z,46.9286
2023-03-18T03:18:55.084Z,47
2023-03-18T03:19:55.122Z,46.7143
2023-03-18T03:20:55.149Z,46.5714
2023-03-18T03:21:55.194Z,46.6429
2023-03-18T03:22:55.225Z,46.7857
2023-03-18T03:23:55.272Z,46.7857
2023-03-18T03:24:55.304Z,46.4286
2023-03-18T03:25:55.349Z,46.3571
2023-03-18T03:26:55.396Z,46.4286
2023-03-18T03:27:55.421Z,46.5714
2023-03-18T03:28:55.454Z,46.2857
2023-03-18T03:29:55.494Z,46.2857
2023-03-18T03:30:55.562Z,46.3571
2023-03-18T03:31:55.575Z,46.5714
2023-03-18T03:32:55.666Z,46.7143
2023-03-18T03:33:55.652Z,46.4286
2023-03-18T03:34:55.686Z,46.7143
2023-03-18T03:35:55.746Z,46.7857
2023-03-18T03:36:55.760Z,47
2023-03-18T03:37:55.787Z,46.9286
2023-03-18T03:38:55.824Z,47.1429
2023-03-18T03:39:55.869Z,47.1429
2023-03-18T03:40:55.901Z,47.0714
2023-03-18T03:41:55.953Z,47.0714
2023-03-18T03:42:55.978Z,47
2023-03-18T03:43:56.000Z,47
2023-03-18T03:44:56.070Z,47.2143
2023-03-18T03:45:56.089Z,47.1429
2023-03-18T03:46:56.297Z,46.9286
2023-03-18T03:47:56.167Z,47.0714
2023-03-18T03:48:56.200Z,47.1429
2023-03-18T03:49:56.233Z,47.2143
2023-03-18T03:50:56.272Z,47.3571
2023-03-18T03:51:56.303Z,47.5714
2023-03-18T03:52:56.362Z,47.5714
2023-03-18T03:53:56.390Z,47.2143
2023-03-18T03:54:56.428Z,47
2023-03-18T03:55:59.056Z,46.7143
2023-03-18T03:56:56.519Z,47.2857
2023-03-18T03:57:56.577Z,48
2023-03-18T03:58:56.584Z,47.4286
2023-03-18T03:59:56.611Z,47.2857
2023-03-18T04:00:56.652Z,47.2857
2023-03-18T04:01:56.704Z,47.7857
2023-03-18T04:02:56.787Z,47.5714
2023-03-18T04:03:56.828Z,47.1429
2023-03-18T04:04:56.806Z,47.2143
2023-03-18T04:05:56.839Z,47.2143
2023-03-18T04:06:56.888Z,47.4286
2023-03-18T04:07:56.934Z,47.4286
2023-03-18T04:08:56.962Z,47.2143
2023-03-18T04:09:56.995Z,47.2143
2023-03-18T04:10:57.044Z,47.1429
2023-03-18T04:11:57.082Z,47.0714
2023-03-18T04:12:57.124Z,46.8571
2023-03-18T04:13:57.158Z,46.8571
2023-03-18T04:14:57.190Z,47.0714
2023-03-18T04:15:57.256Z,47.1429
2023-03-18T04:16:57.261Z,46.9286
2023-03-18T04:17:57.305Z,46.8571
2023-03-18T04:18:57.328Z,47.0714
2023-03-18T04:19:57.377Z,47.1429
2023-03-18T04:20:57.401Z,47.0714
2023-03-18T04:21:57.442Z,46.7857
2023-03-18T04:22:57.475Z,47.1429
2023-03-18T04:23:57.515Z,47.2143
2023-03-18T04:24:57.554Z,47.7143
2023-03-18T04:25:57.595Z,47.5
2023-03-18T04:26:57.639Z,47.6429
2023-03-18T04:27:57.680Z,47.8571
2023-03-18T04:28:57.711Z,47.7143
2023-03-18T04:29:57.756Z,47.5714
2023-03-18T04:30:57.781Z,47.7143
2023-03-18T04:31:57.831Z,47.2143
2023-03-18T04:32:57.905Z,47.3571
2023-03-18T04:33:57.902Z,47.5714
2023-03-18T04:34:57.928Z,47.3571
2023-03-18T04:35:57.995Z,47.2857
2023-03-18T04:36:58.013Z,47.5
2023-03-18T04:37:58.047Z,47.5714
2023-03-18T04:38:58.080Z,47.4286
2023-03-18T04:39:58.110Z,47.3571
2023-03-18T04:40:58.162Z,47.5714
2023-03-18T04:41:58.193Z,47.7143
2023-03-18T04:42:58.225Z,47.7143
2023-03-18T04:43:58.261Z,47.7143
2023-03-18T04:44:58.293Z,47.9286
2023-03-18T04:45:58.327Z,48.2143
2023-03-18T04:46:58.388Z,48.5
2023-03-18T04:47:58.410Z,48.5
2023-03-18T04:48:58.437Z,48.7857
2023-03-18T04:49:58.461Z,49.2857
2023-03-18T04:50:58.497Z,49.4286
2023-03-18T04:51:58.560Z,49.7857
2023-03-18T04:52:58.576Z,50.0714
2023-03-18T04:53:58.604Z,50.1429
2023-03-18T04:54:58.649Z,50.2143
2023-03-18T04:55:58.680Z,49.9286
2023-03-18T04:56:58.709Z,50
2023-03-18T04:57:58.739Z,50.2143
2023-03-18T04:58:58.788Z,50.2857
2023-03-18T04:59:58.819Z,50.5
2023-03-18T05:00:59.008Z,50.7143
2023-03-18T05:01:58.900Z,50.7143
2023-03-18T05:02:58.931Z,50.6429
2023-03-18T05:03:59.024Z,50.7857
2023-03-18T05:04:59.015Z,51
2023-03-18T05:05:59.048Z,50.8571
2023-03-18T05:06:59.100Z,50.8571
2023-03-18T05:07:59.127Z,50.7143
2023-03-18T05:08:59.161Z,51
2023-03-18T05:09:59.192Z,51.1429
2023-03-18T05:10:59.236Z,50.7143
2023-03-18T05:11:59.271Z,50.6429
2023-03-18T05:12:59.295Z,50.6429
2023-03-18T05:13:59.334Z,51
2023-03-18T05:14:59.373Z,51
2023-03-18T05:15:59.412Z,51.0714
2023-03-18T05:16:59.443Z,51.5
2023-03-18T05:17:59.481Z,51.7857
2023-03-18T05:18:59.519Z,51.9286
2023-03-18T05:19:59.555Z,52.1429
2023-03-18T05:20:59.591Z,52.1429
2023-03-18T05:21:59.617Z,52.2143
2023-03-18T05:22:59.662Z,52.3571
2023-03-18T05:23:59.700Z,52.3571
2023-03-18T05:24:59.742Z,52.3571
2023-03-18T05:25:59.775Z,52.4286
2023-03-18T05:26:59.834Z,52.5
2023-03-18T05:27:59.845Z,52.5714
2023-03-18T05:28:59.880Z,52.5
2023-03-18T05:29:59.915Z,52.7143
2023-03-18T05:30:59.952Z,52.8571
2023-03-18T05:32:00.073Z,53.0714
2023-03-18T05:33:00.169Z,53.2143
2023-03-18T05:34:00.104Z,53.2143
2023-03-18T05:35:00.120Z,53.4286
2023-03-18T05:36:00.185Z,53.6429
2023-03-18T05:37:00.176Z,53.5714
2023-03-18T05:38:00.210Z,53.5714
2023-03-18T05:39:00.267Z,53.4286
2023-03-18T05:40:00.276Z,53.5714
2023-03-18T05:41:00.329Z,53.7143
2023-03-18T05:42:00.366Z,53.6429
2023-03-18T05:43:00.395Z,53.4286
2023-03-18T05:44:00.424Z,53.3571
2023-03-18T05:45:00.469Z,53.3571
2023-03-18T05:46:00.546Z,53.1429
2023-03-18T05:47:00.536Z,52.9286
2023-03-18T05:48:00.573Z,52.8571
2023-03-18T05:49:00.605Z,53.0714
2023-03-18T05:50:00.664Z,53.0714
2023-03-18T05:51:00.684Z,53
2023-03-18T05:52:00.715Z,53
2023-03-18T05:53:00.761Z,52.7857
2023-03-18T05:54:00.783Z,52.8571
2023-03-18T05:55:00.830Z,52.7857
2023-03-18T05:56:00.857Z,52.7857
2023-03-18T05:57:00.902Z,52.5
2023-03-18T05:58:00.928Z,52.5714
2023-03-18T05:59:00.977Z,52.6429
2023-03-18T06:00:01.020Z,52.3571
2023-03-18T06:01:01.047Z,52.0714
2023-03-18T06:02:01.096Z,51.9286
2023-03-18T06:03:01.219Z,51.7857
2023-03-18T06:04:01.177Z,51.7857
2023-03-18T06:05:01.178Z,51.7857
2023-03-18T06:06:01.225Z,51.9286
2023-03-18T06:07:01.273Z,52
2023-03-18T06:08:02.844Z,51.7857
2023-03-18T06:09:01.349Z,51.8571
2023-03-18T06:10:01.374Z,51.9286
2023-03-18T06:11:01.417Z,51.7857
2023-03-18T06:12:01.466Z,51.6429
2023-03-18T06:13:01.492Z,51.2857
2023-03-18T06:14:01.521Z,50.9286
2023-03-18T06:15:01.564Z,50.5
2023-03-18T06:16:01.601Z,50.3571
2023-03-18T06:17:01.713Z,50.5
2023-03-18T06:18:01.667Z,50.3571
2023-03-18T06:19:01.701Z,50.5
2023-03-18T06:20:01.743Z,50.3571
2023-03-18T06:21:01.784Z,50.3571
2023-03-18T06:22:01.854Z,50.3571
2023-03-18T06:23:01.841Z,50.0714
2023-03-18T06:24:01.883Z,50.0714
2023-03-18T06:25:01.928Z,50.2143
2023-03-18T06:26:01.951Z,50.2143
2023-03-18T06:27:01.992Z,50.1429
2023-03-18T06:28:02.032Z,49.9286
2023-03-18T06:29:02.060Z,49.9286
2023-03-18T06:30:02.102Z,50
2023-03-18T06:31:02.184Z,50.0714
2023-03-18T06:32:02.165Z,49.9286
2023-03-18T06:33:02.266Z,49.9286
2023-03-18T06:34:02.237Z,50.0714
2023-03-18T06:35:02.276Z,49.7857
2023-03-18T06:36:02.390Z,49.7143
2023-03-18T06:37:02.361Z,49.5714
2023-03-18T06:38:02.393Z,49.7143
2023-03-18T06:39:02.448Z,49.7857
2023-03-18T06:40:02.478Z,50
2023-03-18T06:41:02.497Z,50.3571
2023-03-18T06:42:02.542Z,50.6429
2023-03-18T06:43:02.575Z,50.3571
2023-03-18T06:44:02.610Z,50.7143
2023-03-18T06:45:02.638Z,50.9286
2023-03-18T06:46:02.722Z,50.9286
2023-03-18T06:47:02.709Z,50.6429
2023-03-18T06:48:02.761Z,50.5
2023-03-18T06:49:02.790Z,50.3571
2023-03-18T06:50:02.859Z,50.2857
2023-03-18T06:51:02.864Z,49.9286
2023-03-18T06:52:02.898Z,49.7143
2023-03-18T06:53:02.926Z,49.2857
2023-03-18T06:54:02.967Z,49
2023-03-18T06:55:02.995Z,48.3571
2023-03-18T06:56:03.041Z,48.4286
2023-03-18T06:57:03.074Z,48.0714
2023-03-18T06:58:03.103Z,47.2857
2023-03-18T06:59:03.131Z,47.4286
2023-03-18T07:00:03.178Z,47.4286
2023-03-18T07:01:03.366Z,47.3571
2023-03-18T07:02:03.261Z,47.5
2023-03-18T07:03:03.269Z,47.2857
2023-03-18T07:04:03.420Z,47.1429
2023-03-18T07:05:03.356Z,46.8571
2023-03-18T07:06:03.384Z,46.6429
2023-03-18T07:07:03.420Z,46.2143
2023-03-18T07:08:03.455Z,45.9286
2023-03-18T07:09:03.492Z,45.7857
2023-03-18T07:10:03.525Z,45.3571
2023-03-18T07:11:03.568Z,45.4286
2023-03-18T07:12:03.598Z,45.7143
2023-03-18T07:13:03.644Z,45.5
2023-03-18T07:14:03.669Z,45.3571
2023-03-18T07:15:03.695Z,45
2023-03-18T07:16:03.952Z,45.1429
2023-03-18T07:17:03.775Z,44.9286
2023-03-18T07:18:03.811Z,44.6429
2023-03-18T07:19:03.841Z,44.5714
2023-03-18T07:20:03.889Z,44.5714
2023-03-18T07:21:03.916Z,44.5714
2023-03-18T07:22:04.070Z,44.6429
2023-03-18T07:23:03.986Z,44.6429
2023-03-18T07:24:04.020Z,44.5714
2023-03-18T07:25:04.057Z,44.5
2023-03-18T07:26:04.092Z,44.6429
2023-03-18T07:27:04.128Z,44.7857
2023-03-18T07:28:04.165Z,44.6429
2023-03-18T07:29:04.212Z,44.2143
2023-03-18T07:30:04.241Z,44.2857
2023-03-18T07:31:04.320Z,44
2023-03-18T07:32:04.313Z,43.0714
2023-03-18T07:33:04.400Z,42.4286
2023-03-18T07:34:04.387Z,42.1429
2023-03-18T07:35:04.421Z,41.8571
2023-03-18T07:36:04.505Z,41.2143
2023-03-18T07:37:04.504Z,41.2857
2023-03-18T07:38:04.534Z,40.8571
2023-03-18T07:39:04.579Z,40.7143
2023-03-18T07:40:04.621Z,40.6429
2023-03-18T07:41:04.662Z,40.8571
2023-03-18T07:42:04.688Z,41
2023-03-18T07:43:04.725Z,40.7143
2023-03-18T07:44:04.765Z,40.9286
2023-03-18T07:45:04.794Z,41
2023-03-18T07:46:04.876Z,41.4286
2023-03-18T07:47:04.862Z,41.2143
2023-03-18T07:48:04.894Z,41.0714
2023-03-18T07:49:04.934Z,40.3571
2023-03-18T07:50:04.964Z,40.5
2023-03-18T07:51:05.005Z,40.4286
2023-03-18T07:52:05.057Z,40.4286
2023-03-18T07:53:05.080Z,40
2023-03-18T07:54:05.107Z,40.1429
2023-03-18T07:55:05.148Z,39.7857
2023-03-18T07:56:05.165Z,39.6429
2023-03-18T07:57:05.281Z,40
2023-03-18T07:58:05.393Z,39.7143
2023-03-18T07:59:05.273Z,39.4286
2023-03-18T08:00:05.306Z,38.8571
2023-03-18T08:01:05.350Z,38.7857
2023-03-18T08:02:05.391Z,38.5
2023-03-18T08:03:05.416Z,38
2023-03-18T08:04:05.633Z,38.2143
2023-03-18T08:05:05.588Z,38.2857
2023-03-18T08:06:05.582Z,38.5714
2023-03-18T08:07:05.597Z,38.4286
2023-03-18T08:08:05.800Z,38
2023-03-18T08:09:05.627Z,37.9286
2023-03-18T08:10:05.894Z,38.2143
2023-03-18T08:11:05.693Z,38.2857
2023-03-18T08:12:05.731Z,38.8571
2023-03-18T08:13:05.768Z,39.3571
2023-03-18T08:14:05.794Z,39.5714
2023-03-18T08:15:05.828Z,38.6429
2023-03-18T08:16:05.945Z,39
2023-03-18T08:17:05.921Z,39.0714
2023-03-18T08:18:09.090Z,39.0714
2023-03-18T08:19:05.964Z,39.2143
2023-03-18T08:20:05.999Z,38.5
2023-03-18T08:21:06.091Z,39.2143
2023-03-18T08:22:06.073Z,39.0714
2023-03-18T08:23:06.105Z,38.8571
2023-03-18T08:24:06.144Z,38.3571
2023-03-18T08:25:06.221Z,38.5714
2023-03-18T08:26:06.244Z,38.5
2023-03-18T08:27:06.269Z,38.1429
2023-03-18T08:28:06.299Z,38.0714
2023-03-18T08:29:06.332Z,38.1429
2023-03-18T08:30:06.358Z,37.6429
2023-03-18T08:31:06.484Z,37.4286
2023-03-18T08:32:06.436Z,37.7143
2023-03-18T08:33:06.607Z,37.4286
2023-03-18T08:34:06.504Z,37.7857
2023-03-18T08:35:06.558Z,38.0714
2023-03-18T08:36:06.660Z,38.5
2023-03-18T08:37:06.619Z,38.7143
2023-03-18T08:38:06.658Z,38.6429
2023-03-18T08:39:06.684Z,38.7857
2023-03-18T08:40:06.733Z,38.7857
2023-03-18T08:41:06.764Z,38.2857
2023-03-18T08:42:06.811Z,38.2143
2023-03-18T08:43:06.838Z,38.8571
2023-03-18T08:44:06.876Z,39
2023-03-18T08:45:06.946Z,38.5
2023-03-18T08:46:07.038Z,38.2143
2023-03-18T08:47:06.980Z,38.4286
2023-03-18T08:48:07.013Z,38.7143
2023-03-18T08:49:07.050Z,38.2857
2023-03-18T08:50:07.110Z,38.4286
2023-03-18T08:51:07.116Z,38.7143
2023-03-18T08:52:07.157Z,38.8571
2023-03-18T08:53:07.194Z,38.7143
2023-03-18T08:54:07.224Z,38.9286
2023-03-18T08:55:07.286Z,39.3571
2023-03-18T08:56:07.286Z,39.5
2023-03-18T08:57:07.319Z,39.8571
2023-03-18T08:58:07.357Z,40.0714
2023-03-18T08:59:07.401Z,39.9286
2023-03-18T09:00:07.432Z,39.8571
2023-03-18T09:01:07.510Z,40.0714
2023-03-18T09:02:07.493Z,40.5714
2023-03-18T09:03:07.592Z,40.1429
2023-03-18T09:04:07.566Z,39.3571
2023-03-18T09:05:07.596Z,39.2857
2023-03-18T09:06:07.650Z,38.7143
2023-03-18T09:07:07.682Z,39
2023-03-18T09:08:07.722Z,38.5
2023-03-18T09:09:07.760Z,37.6429
2023-03-18T09:10:07.795Z,37.9286
2023-03-18T09:11:07.829Z,38.4286
2023-03-18T09:12:07.859Z,38
2023-03-18T09:13:07.895Z,37.7143
2023-03-18T09:14:07.939Z,37.4286
2023-03-18T09:15:07.964Z,37.5
2023-03-18T09:16:07.996Z,37.5714
2023-03-18T09:17:08.046Z,37.8571
2023-03-18T09:18:12.092Z,37.6429
2023-03-18T09:19:08.107Z,37.7143
2023-03-18T09:20:08.151Z,37.7143
2023-03-18T09:21:08.187Z,38.0714
2023-03-18T09:22:08.214Z,37.8571
2023-03-18T09:23:08.257Z,38.2143
2023-03-18T09:24:08.298Z,38.1429
2023-03-18T09:25:08.328Z,38
2023-03-18T09:26:08.364Z,38.2857
2023-03-18T09:27:08.398Z,38.7857
2023-03-18T09:28:08.449Z,39
2023-03-18T09:29:08.482Z,39
2023-03-18T09:30:08.510Z,39.1429
2023-03-18T09:31:08.604Z,39
2023-03-18T09:32:08.569Z,39.1429
2023-03-18T09:33:08.684Z,38.7143
2023-03-18T09:34:08.643Z,38.5714
2023-03-18T09:35:08.789Z,38.6429
2023-03-18T09:36:08.776Z,39.1429
2023-03-18T09:37:08.751Z,39.7857
2023-03-18T09:38:08.781Z,39.5714
2023-03-18T09:39:08.832Z,40.1429
2023-03-18T09:40:08.851Z,39.2857
2023-03-18T09:41:08.884Z,39.0714
2023-03-18T09:42:08.929Z,39.3571
2023-03-18T09:43:08.971Z,40.1429
2023-03-18T09:44:09.002Z,40.6429
2023-03-18T09:45:09.042Z,40.0714
2023-03-18T09:46:09.178Z,40.4286
2023-03-18T09:47:09.205Z,40.1429
2023-03-18T09:48:09.147Z,40.2857
2023-03-18T09:49:09.184Z,39.9286
2023-03-18T09:50:09.225Z,39.6429
2023-03-18T09:51:09.262Z,39.2143
2023-03-18T09:52:09.282Z,38.5714
2023-03-18T09:53:09.319Z,38
2023-03-18T09:54:09.349Z,38.9286
2023-03-18T09:55:09.392Z,39.2857
2023-03-18T09:56:09.432Z,39.3571
2023-03-18T09:57:09.450Z,38.8571
2023-03-18T09:58:09.490Z,38.2857
2023-03-18T09:59:09.528Z,38.2857
2023-03-18T10:00:09.561Z,38.5714
2023-03-18T10:01:09.678Z,38.6429
2023-03-18T10:02:09.641Z,38.6429
2023-03-18T10:03:09.707Z,38.5
2023-03-18T10:04:09.810Z,38.5714
2023-03-18T10:05:09.748Z,38.5
2023-03-18T10:06:09.848Z,38.4286
2023-03-18T10:07:09.816Z,38.2857
2023-03-18T10:08:09.858Z,38.4286
2023-03-18T10:09:09.905Z,37.8571
2023-03-18T10:10:09.934Z,37.3571
2023-03-18T10:11:09.977Z,37.7857
2023-03-18T10:12:10.009Z,37.3571
2023-03-18T10:13:10.049Z,37.9286
2023-03-18T10:14:10.075Z,37.5714
2023-03-18T10:15:10.113Z,37.5
2023-03-18T10:16:10.195Z,38.2143
2023-03-18T10:17:10.188Z,38.2857
2023-03-18T10:18:10.221Z,37.7143
2023-03-18T10:19:10.247Z,38.3571
2023-03-18T10:20:10.281Z,38.5714
2023-03-18T10:21:10.349Z,38.7143
2023-03-18T10:22:10.351Z,38.8571
2023-03-18T10:23:10.393Z,39
2023-03-18T10:24:10.435Z,38.8571
2023-03-18T10:25:10.468Z,38.7857
2023-03-18T10:26:10.516Z,38.9286
2023-03-18T10:27:10.547Z,39
2023-03-18T10:28:10.577Z,39.4286
2023-03-18T10:29:10.613Z,38.1429
2023-03-18T10:30:10.643Z,38.2143
2023-03-18T10:31:10.805Z,38.2143
2023-03-18T10:32:10.720Z,38.0714
2023-03-18T10:33:10.771Z,37.6429
2023-03-18T10:34:10.777Z,38.4286
2023-03-18T10:35:10.819Z,39.5714
2023-03-18T10:36:10.980Z,39.1429
2023-03-18T10:37:10.885Z,39.2857
2023-03-18T10:38:10.926Z,39.7857
2023-03-18T10:39:10.965Z,38.7857
2023-03-18T10:40:11.010Z,39.5714
2023-03-18T10:41:11.042Z,40
2023-03-18T10:42:11.080Z,39.7857
2023-03-18T10:43:11.106Z,39.5
2023-03-18T10:44:11.143Z,39.5
2023-03-18T10:45:11.172Z,39.2857
2023-03-18T10:46:11.409Z,40.7143
2023-03-18T10:47:11.407Z,39.5
2023-03-18T10:48:11.271Z,39.8571
2023-03-18T10:49:11.315Z,38.5714
2023-03-18T10:50:11.342Z,38.5714
2023-03-18T10:51:11.379Z,39.8571
2023-03-18T10:52:11.420Z,41.4286
2023-03-18T10:53:11.441Z,41.3571
2023-03-18T10:54:11.489Z,41.5
2023-03-18T10:55:11.521Z,41.1429
2023-03-18T10:56:11.528Z,40.6429
2023-03-18T10:57:11.567Z,41.0714
2023-03-18T10:58:11.608Z,39.8571
2023-03-18T10:59:11.639Z,41
2023-03-18T11:00:11.675Z,41.1429
2023-03-18T11:01:11.710Z,41.0714
2023-03-18T11:02:11.787Z,41.2143
2023-03-18T11:03:11.821Z,39.7857
2023-03-18T11:04:11.815Z,39.7143
2023-03-18T11:05:11.854Z,39.4286
2023-03-18T11:06:11.891Z,40.2143
2023-03-18T11:07:11.924Z,40.5
2023-03-18T11:08:11.968Z,41.2143
2023-03-18T11:09:11.979Z,40.3571
2023-03-18T11:10:12.026Z,39.9286
2023-03-18T11:11:12.056Z,40.8571
2023-03-18T11:12:12.106Z,41.1429
2023-03-18T11:13:12.142Z,41.0714
2023-03-18T11:14:12.176Z,40.3571
2023-03-18T11:15:12.216Z,40.7143
2023-03-18T11:16:12.289Z,40.7857
2023-03-18T11:17:12.302Z,40.9286
2023-03-18T11:18:12.327Z,41.3571
2023-03-18T11:19:12.357Z,40.9286
2023-03-18T11:20:12.402Z,41.2143
2023-03-18T11:21:12.426Z,41.8571
2023-03-18T11:22:12.470Z,41.9286
2023-03-18T11:23:12.511Z,41.2857
2023-03-18T11:24:12.533Z,42.1429
2023-03-18T11:25:12.567Z,42.7857
2023-03-18T11:26:12.619Z,42.2857
2023-03-18T11:27:12.641Z,42
2023-03-18T11:28:12.680Z,41.2143
2023-03-18T11:29:12.712Z,41.7143
2023-03-18T11:30:14.807Z,41.5714
2023-03-18T11:31:12.809Z,41.3571
2023-03-18T11:32:12.823Z,41.2143
2023-03-18T11:33:12.996Z,40.7143
2023-03-18T11:34:12.890Z,41.3571
2023-03-18T11:35:12.925Z,41.1429
2023-03-18T11:36:12.990Z,41.0714
2023-03-18T11:37:13.006Z,41.2857
2023-03-18T11:38:13.032Z,40.5
2023-03-18T11:39:13.064Z,40.8571
2023-03-18T11:40:13.111Z,41.5714
2023-03-18T11:41:13.151Z,41.5
2023-03-18T11:42:13.174Z,41.7857
2023-03-18T11:43:13.215Z,43.0714
2023-03-18T11:44:13.259Z,42.4286
2023-03-18T11:45:13.285Z,41.6429
2023-03-18T11:46:13.336Z,42.1429
2023-03-18T11:47:13.367Z,42.2857
2023-03-18T11:48:13.409Z,42
2023-03-18T11:49:13.438Z,41.2143
2023-03-18T11:50:13.475Z,41.2857
2023-03-18T11:51:13.509Z,41.9286
2023-03-18T11:52:13.545Z,42.2143
2023-03-18T11:53:13.587Z,42.4286
2023-03-18T11:54:13.627Z,42.6429
2023-03-18T11:55:13.659Z,42.9286
2023-03-18T11:56:13.695Z,43
2023-03-18T11:57:13.728Z,43.0714
2023-03-18T11:58:13.765Z,43.2143
2023-03-18T11:59:13.807Z,42.7857
2023-03-18T12:00:13.848Z,43.2143
2023-03-18T12:01:13.873Z,43.5
2023-03-18T12:02:13.989Z,43.4286
2023-03-18T12:03:13.954Z,43.4286
2023-03-18T12:04:13.979Z,43.2857
2023-03-18T12:05:14.042Z,43.3571
2023-03-18T12:06:14.050Z,43.2857
2023-03-18T12:07:14.081Z,43.1429
2023-03-18T12:08:14.112Z,43.5714
2023-03-18T12:09:14.153Z,43.4286
2023-03-18T12:10:14.192Z,43.2857
2023-03-18T12:11:14.251Z,43.6429
2023-03-18T12:12:14.293Z,43.3571
2023-03-18T12:13:14.301Z,43.4286
2023-03-18T12:14:14.326Z,43.6429
2023-03-18T12:15:14.368Z,44.2143
2023-03-18T12:16:14.502Z,43.8571
2023-03-18T12:17:14.433Z,44.2143
2023-03-18T12:18:14.483Z,44.5
2023-03-18T12:19:14.514Z,44.3571
2023-03-18T12:20:14.549Z,43.7143
2023-03-18T12:21:14.597Z,43.7143